sensor_id;sensor_type;location;lat;lon;timestamp;pressure;altitude;pressure_sealevel;temperature;humidity
26937;BME280;14495;48.116;11.676;2023-05-29T00:00:24;95515.22;;;9.40;100.00
26937;BME280;14495;48.116;11.676;2023-05-29T00:02:50;95513.47;;;9.40;100.00
26937;BME280;14495;48.116;11.676;2023-05-29T00:05:19;95520.81;;;9.48;100.00
26937;BME280;14495;48.116;11.676;2023-05-29T00:07:44;95517.00;;;9.39;100.00
26937;BME280;14495;48.116;11.676;2023-05-29T00:10:11;95520.22;;;9.28;100.00
26937;BME280;14495;48.116;11.676;2023-05-29T00:12:37;95514.44;;;9.23;100.00
26937;BME280;14495;48.116;11.676;2023-05-29T00:15:04;95514.09;;;9.29;100.00
26937;BME280;14495;48.116;11.676;2023-05-29T00:17:30;95510.81;;;9.26;100.00
26937;BME280;14495;48.116;11.676;2023-05-29T00:19:58;95518.34;;;9.16;100.00
26937;BME280;14495;48.116;11.676;2023-05-29T00:22:24;95523.16;;;9.08;100.00
26937;BME280;14495;48.116;11.676;2023-05-29T00:24:51;95514.34;;;9.11;100.00
26937;BME280;14495;48.116;11.676;2023-05-29T00:27:18;95516.28;;;9.07;100.00
26937;BME280;14495;48.116;11.676;2023-05-29T00:29:45;95521.13;;;9.13;100.00
26937;BME280;14495;48.116;11.676;2023-05-29T00:32:11;95521.22;;;9.12;100.00
26937;BME280;14495;48.116;11.676;2023-05-29T00:34:37;95520.97;;;9.16;100.00
26937;BME280;14495;48.116;11.676;2023-05-29T00:37:03;95518.25;;;9.18;100.00
26937;BME280;14495;48.116;11.676;2023-05-29T00:39:29;95512.91;;;9.05;100.00
26937;BME280;14495;48.116;11.676;2023-05-29T00:41:54;95513.34;;;8.97;100.00
26937;BME280;14495;48.116;11.676;2023-05-29T00:44:21;95512.34;;;9.00;100.00
26937;BME280;14495;48.116;11.676;2023-05-29T00:46:48;95508.75;;;8.86;100.00
26937;BME280;14495;48.116;11.676;2023-05-29T00:49:14;95508.88;;;8.85;100.00
26937;BME280;14495;48.116;11.676;2023-05-29T00:51:42;95507.75;;;8.89;100.00
26937;BME280;14495;48.116;11.676;2023-05-29T00:54:11;95511.28;;;8.88;100.00
26937;BME280;14495;48.116;11.676;2023-05-29T00:56:38;95512.81;;;8.76;100.00
26937;BME280;14495;48.116;11.676;2023-05-29T00:59:05;95510.66;;;8.68;100.00
26937;BME280;14495;48.116;11.676;2023-05-29T01:04:00;95500.81;;;8.74;100.00
26937;BME280;14495;48.116;11.676;2023-05-29T01:06:29;95509.91;;;8.66;100.00
26937;BME280;14495;48.116;11.676;2023-05-29T01:08:55;95514.00;;;8.70;100.00
26937;BME280;14495;48.116;11.676;2023-05-29T01:14:09;95516.06;;;8.49;100.00
26937;BME280;14495;48.116;11.676;2023-05-29T01:16:47;95514.78;;;8.41;100.00
26937;BME280;14495;48.116;11.676;2023-05-29T01:22:11;95515.47;;;8.44;100.00
26937;BME280;14495;48.116;11.676;2023-05-29T01:24:49;95515.41;;;8.46;100.00
26937;BME280;14495;48.116;11.676;2023-05-29T01:27:19;95510.19;;;8.46;100.00
26937;BME280;14495;48.116;11.676;2023-05-29T01:29:47;95521.59;;;8.43;100.00
26937;BME280;14495;48.116;11.676;2023-05-29T01:32:14;95515.22;;;8.49;100.00
26937;BME280;14495;48.116;11.676;2023-05-29T01:34:40;95513.50;;;8.32;100.00
26937;BME280;14495;48.116;11.676;2023-05-29T01:37:05;95521.00;;;8.22;100.00
26937;BME280;14495;48.116;11.676;2023-05-29T01:39:31;95516.88;;;8.18;100.00
26937;BME280;14495;48.116;11.676;2023-05-29T01:41:57;95515.78;;;8.06;100.00
26937;BME280;14495;48.116;11.676;2023-05-29T01:44:24;95515.28;;;8.16;100.00
26937;BME280;14495;48.116;11.676;2023-05-29T01:46:50;95515.13;;;8.19;100.00
26937;BME280;14495;48.116;11.676;2023-05-29T01:49:16;95513.78;;;8.11;100.00
26937;BME280;14495;48.116;11.676;2023-05-29T01:51:42;95509.31;;;8.13;100.00
26937;BME280;14495;48.116;11.676;2023-05-29T01:54:09;95519.56;;;8.17;100.00
26937;BME280;14495;48.116;11.676;2023-05-29T01:56:35;95527.47;;;8.15;100.00
26937;BME280;14495;48.116;11.676;2023-05-29T01:59:02;95517.38;;;8.09;100.00
26937;BME280;14495;48.116;11.676;2023-05-29T02:01:28;95520.22;;;8.04;100.00
26937;BME280;14495;48.116;11.676;2023-05-29T02:03:53;95515.50;;;7.95;100.00
26937;BME280;14495;48.116;11.676;2023-05-29T02:06:19;95516.28;;;7.97;100.00
26937;BME280;14495;48.116;11.676;2023-05-29T02:08:45;95514.00;;;7.91;100.00
26937;BME280;14495;48.116;11.676;2023-05-29T02:11:11;95524.41;;;7.91;100.00
26937;BME280;14495;48.116;11.676;2023-05-29T02:13:41;95516.34;;;7.80;100.00
26937;BME280;14495;48.116;11.676;2023-05-29T02:16:06;95516.34;;;7.80;100.00
26937;BME280;14495;48.116;11.676;2023-05-29T02:18:32;95509.28;;;7.82;100.00
26937;BME280;14495;48.116;11.676;2023-05-29T02:20:59;95507.78;;;7.78;100.00
26937;BME280;14495;48.116;11.676;2023-05-29T02:23:25;95507.09;;;7.90;100.00
26937;BME280;14495;48.116;11.676;2023-05-29T02:25:51;95500.41;;;7.86;100.00
26937;BME280;14495;48.116;11.676;2023-05-29T02:28:16;95505.75;;;7.83;100.00
26937;BME280;14495;48.116;11.676;2023-05-29T02:30:42;95502.66;;;7.76;100.00
26937;BME280;14495;48.116;11.676;2023-05-29T02:33:07;95505.13;;;7.62;100.00
26937;BME280;14495;48.116;11.676;2023-05-29T02:35:33;95501.44;;;7.66;100.00
26937;BME280;14495;48.116;11.676;2023-05-29T02:37:59;95505.41;;;7.73;100.00
26937;BME280;14495;48.116;11.676;2023-05-29T02:40:25;95502.81;;;7.73;100.00
26937;BME280;14495;48.116;11.676;2023-05-29T02:42:50;95511.63;;;7.70;100.00
26937;BME280;14495;48.116;11.676;2023-05-29T02:45:16;95510.88;;;7.68;100.00
26937;BME280;14495;48.116;11.676;2023-05-29T02:47:41;95505.50;;;7.71;100.00
26937;BME280;14495;48.116;11.676;2023-05-29T02:50:07;95510.94;;;7.67;100.00
26937;BME280;14495;48.116;11.676;2023-05-29T02:52:34;95504.38;;;7.60;100.00
26937;BME280;14495;48.116;11.676;2023-05-29T02:55:02;95502.78;;;7.57;100.00
26937;BME280;14495;48.116;11.676;2023-05-29T02:57:28;95509.06;;;7.53;100.00
26937;BME280;14495;48.116;11.676;2023-05-29T02:59:53;95510.13;;;7.49;100.00
26937;BME280;14495;48.116;11.676;2023-05-29T03:02:21;95510.97;;;7.49;100.00
26937;BME280;14495;48.116;11.676;2023-05-29T03:04:46;95512.81;;;7.47;100.00
26937;BME280;14495;48.116;11.676;2023-05-29T03:07:15;95506.03;;;7.45;100.00
26937;BME280;14495;48.116;11.676;2023-05-29T03:09:40;95509.38;;;7.47;100.00
26937;BME280;14495;48.116;11.676;2023-05-29T03:12:06;95511.84;;;7.50;100.00
26937;BME280;14495;48.116;11.676;2023-05-29T03:14:31;95515.66;;;7.43;100.00
26937;BME280;14495;48.116;11.676;2023-05-29T03:17:03;95513.91;;;7.43;100.00
26937;BME280;14495;48.116;11.676;2023-05-29T03:19:29;95516.13;;;7.33;100.00
26937;BME280;14495;48.116;11.676;2023-05-29T03:21:55;95520.09;;;7.41;100.00
26937;BME280;14495;48.116;11.676;2023-05-29T03:24:20;95521.09;;;7.38;100.00
26937;BME280;14495;48.116;11.676;2023-05-29T03:26:46;95523.63;;;7.40;100.00
26937;BME280;14495;48.116;11.676;2023-05-29T03:29:11;95522.94;;;7.36;100.00
26937;BME280;14495;48.116;11.676;2023-05-29T03:31:36;95523.56;;;7.24;100.00
26937;BME280;14495;48.116;11.676;2023-05-29T03:34:02;95520.88;;;7.25;100.00
26937;BME280;14495;48.116;11.676;2023-05-29T03:36:27;95519.66;;;7.15;100.00
26937;BME280;14495;48.116;11.676;2023-05-29T03:38:53;95517.59;;;7.22;100.00
26937;BME280;14495;48.116;11.676;2023-05-29T03:41:18;95519.97;;;7.26;100.00
26937;BME280;14495;48.116;11.676;2023-05-29T03:43:44;95523.00;;;7.34;100.00
26937;BME280;14495;48.116;11.676;2023-05-29T03:46:09;95532.63;;;7.32;100.00
26937;BME280;14495;48.116;11.676;2023-05-29T03:48:35;95526.47;;;7.35;100.00
26937;BME280;14495;48.116;11.676;2023-05-29T03:51:00;95535.53;;;7.44;100.00
26937;BME280;14495;48.116;11.676;2023-05-29T03:53:26;95534.84;;;7.58;100.00
26937;BME280;14495;48.116;11.676;2023-05-29T03:55:51;95530.91;;;7.66;100.00
26937;BME280;14495;48.116;11.676;2023-05-29T03:58:16;95539.03;;;7.60;100.00
26937;BME280;14495;48.116;11.676;2023-05-29T04:00:42;95535.06;;;7.53;100.00
26937;BME280;14495;48.116;11.676;2023-05-29T04:03:08;95538.19;;;7.60;100.00
26937;BME280;14495;48.116;11.676;2023-05-29T04:05:33;95537.94;;;7.64;100.00
26937;BME280;14495;48.116;11.676;2023-05-29T04:08:00;95541.34;;;7.82;100.00
26937;BME280;14495;48.116;11.676;2023-05-29T04:10:26;95547.69;;;7.94;100.00
26937;BME280;14495;48.116;11.676;2023-05-29T04:12:51;95551.78;;;7.98;100.00
26937;BME280;14495;48.116;11.676;2023-05-29T04:15:19;95552.09;;;7.92;100.00
26937;BME280;14495;48.116;11.676;2023-05-29T04:17:44;95548.91;;;7.87;100.00
26937;BME280;14495;48.116;11.676;2023-05-29T04:20:10;95544.41;;;7.90;100.00
26937;BME280;14495;48.116;11.676;2023-05-29T04:22:36;95541.88;;;7.89;100.00
26937;BME280;14495;48.116;11.676;2023-05-29T04:25:04;95558.09;;;7.94;100.00
26937;BME280;14495;48.116;11.676;2023-05-29T04:27:30;95559.78;;;8.11;100.00
26937;BME280;14495;48.116;11.676;2023-05-29T04:29:58;95567.78;;;8.24;100.00
26937;BME280;14495;48.116;11.676;2023-05-29T04:32:23;95564.47;;;8.36;100.00
26937;BME280;14495;48.116;11.676;2023-05-29T04:34:48;95567.97;;;8.52;100.00
26937;BME280;14495;48.116;11.676;2023-05-29T04:37:14;95566.94;;;8.71;100.00
26937;BME280;14495;48.116;11.676;2023-05-29T04:39:40;95564.56;;;8.82;100.00
26937;BME280;14495;48.116;11.676;2023-05-29T04:42:08;95570.44;;;8.86;100.00
26937;BME280;14495;48.116;11.676;2023-05-29T04:44:33;95568.94;;;8.98;100.00
26937;BME280;14495;48.116;11.676;2023-05-29T04:46:58;95581.84;;;9.15;100.00
26937;BME280;14495;48.116;11.676;2023-05-29T04:49:30;95579.84;;;9.35;100.00
26937;BME280;14495;48.116;11.676;2023-05-29T04:51:56;95577.88;;;9.38;100.00
26937;BME280;14495;48.116;11.676;2023-05-29T04:54:25;95573.72;;;9.50;100.00
26937;BME280;14495;48.116;11.676;2023-05-29T04:56:50;95582.03;;;9.57;100.00
26937;BME280;14495;48.116;11.676;2023-05-29T04:59:16;95584.03;;;9.82;100.00
26937;BME280;14495;48.116;11.676;2023-05-29T05:01:41;95578.91;;;9.95;100.00
26937;BME280;14495;48.116;11.676;2023-05-29T05:04:08;95585.88;;;10.09;100.00
26937;BME280;14495;48.116;11.676;2023-05-29T05:06:34;95593.72;;;10.09;100.00
26937;BME280;14495;48.116;11.676;2023-05-29T05:09:00;95584.75;;;10.27;100.00
26937;BME280;14495;48.116;11.676;2023-05-29T05:11:26;95582.91;;;10.43;100.00
26937;BME280;14495;48.116;11.676;2023-05-29T05:13:51;95579.44;;;10.57;100.00
26937;BME280;14495;48.116;11.676;2023-05-29T05:16:17;95576.94;;;10.83;100.00
26937;BME280;14495;48.116;11.676;2023-05-29T05:18:45;95577.97;;;11.08;100.00
26937;BME280;14495;48.116;11.676;2023-05-29T05:21:11;95584.09;;;11.34;100.00
26937;BME280;14495;48.116;11.676;2023-05-29T05:23:36;95582.69;;;11.55;100.00
26937;BME280;14495;48.116;11.676;2023-05-29T05:26:02;95596.09;;;11.64;100.00
26937;BME280;14495;48.116;11.676;2023-05-29T05:28:28;95585.09;;;11.71;100.00
26937;BME280;14495;48.116;11.676;2023-05-29T05:30:53;95590.16;;;11.87;100.00
26937;BME280;14495;48.116;11.676;2023-05-29T05:33:19;95591.97;;;11.99;100.00
26937;BME280;14495;48.116;11.676;2023-05-29T05:35:44;95591.34;;;12.22;100.00
26937;BME280;14495;48.116;11.676;2023-05-29T05:38:10;95589.91;;;12.42;100.00
26937;BME280;14495;48.116;11.676;2023-05-29T05:40:35;95600.34;;;12.67;100.00
26937;BME280;14495;48.116;11.676;2023-05-29T05:43:01;95597.31;;;12.73;100.00
26937;BME280;14495;48.116;11.676;2023-05-29T05:45:28;95597.88;;;12.90;100.00
26937;BME280;14495;48.116;11.676;2023-05-29T05:47:56;95593.28;;;12.81;100.00
26937;BME280;14495;48.116;11.676;2023-05-29T05:50:24;95594.56;;;13.23;100.00
26937;BME280;14495;48.116;11.676;2023-05-29T05:52:50;95592.34;;;13.30;100.00
26937;BME280;14495;48.116;11.676;2023-05-29T05:55:15;95600.22;;;13.54;100.00
26937;BME280;14495;48.116;11.676;2023-05-29T05:57:41;95595.44;;;14.40;100.00
26937;BME280;14495;48.116;11.676;2023-05-29T06:00:08;95597.06;;;16.36;100.00
26937;BME280;14495;48.116;11.676;2023-05-29T06:02:38;95588.63;;;19.22;88.32
26937;BME280;14495;48.116;11.676;2023-05-29T06:05:11;95591.41;;;20.97;64.66
26937;BME280;14495;48.116;11.676;2023-05-29T06:07:37;95591.06;;;21.51;60.21
26937;BME280;14495;48.116;11.676;2023-05-29T06:10:03;95599.38;;;21.81;59.19
26937;BME280;14495;48.116;11.676;2023-05-29T06:12:29;95585.91;;;22.15;58.87
26937;BME280;14495;48.116;11.676;2023-05-29T06:14:55;95592.53;;;20.95;59.21
26937;BME280;14495;48.116;11.676;2023-05-29T06:17:21;95589.41;;;22.80;55.67
26937;BME280;14495;48.116;11.676;2023-05-29T06:19:47;95590.25;;;23.51;54.81
26937;BME280;14495;48.116;11.676;2023-05-29T06:22:14;95587.22;;;23.31;53.58
26937;BME280;14495;48.116;11.676;2023-05-29T06:24:39;95594.72;;;25.18;49.31
26937;BME280;14495;48.116;11.676;2023-05-29T06:27:05;95597.88;;;24.09;49.85
26937;BME280;14495;48.116;11.676;2023-05-29T06:29:31;95599.25;;;23.82;51.43
26937;BME280;14495;48.116;11.676;2023-05-29T06:31:57;95607.91;;;22.82;52.87
26937;BME280;14495;48.116;11.676;2023-05-29T06:34:23;95603.59;;;23.28;52.49
26937;BME280;14495;48.116;11.676;2023-05-29T06:36:48;95597.03;;;24.76;49.19
26937;BME280;14495;48.116;11.676;2023-05-29T06:39:14;95598.06;;;24.90;48.66
26937;BME280;14495;48.116;11.676;2023-05-29T06:41:39;95598.56;;;26.94;44.58
26937;BME280;14495;48.116;11.676;2023-05-29T06:44:05;95604.66;;;25.39;46.40
26937;BME280;14495;48.116;11.676;2023-05-29T06:46:31;95602.38;;;24.76;47.60
26937;BME280;14495;48.116;11.676;2023-05-29T06:48:58;95608.34;;;25.23;48.76
26937;BME280;14495;48.116;11.676;2023-05-29T06:51:24;95606.19;;;25.48;45.74
26937;BME280;14495;48.116;11.676;2023-05-29T06:53:50;95602.66;;;26.55;44.99
26937;BME280;14495;48.116;11.676;2023-05-29T06:56:15;95614.38;;;24.80;47.50
26937;BME280;14495;48.116;11.676;2023-05-29T06:58:41;95621.41;;;24.05;47.66
26937;BME280;14495;48.116;11.676;2023-05-29T07:01:06;95614.19;;;24.97;47.11
26937;BME280;14495;48.116;11.676;2023-05-29T07:03:32;95617.91;;;26.05;45.81
26937;BME280;14495;48.116;11.676;2023-05-29T07:05:57;95614.38;;;25.25;47.17
26937;BME280;14495;48.116;11.676;2023-05-29T07:08:23;95616.63;;;27.14;45.11
26937;BME280;14495;48.116;11.676;2023-05-29T07:10:49;95613.72;;;27.09;43.49
26937;BME280;14495;48.116;11.676;2023-05-29T07:13:16;95614.72;;;27.01;43.55
26937;BME280;14495;48.116;11.676;2023-05-29T07:15:42;95623.63;;;26.45;43.95
26937;BME280;14495;48.116;11.676;2023-05-29T07:18:08;95615.41;;;27.71;41.96
26937;BME280;14495;48.116;11.676;2023-05-29T07:20:33;95618.22;;;27.02;41.74
26937;BME280;14495;48.116;11.676;2023-05-29T07:23:01;95622.00;;;27.62;40.63
26937;BME280;14495;48.116;11.676;2023-05-29T07:25:27;95618.09;;;27.78;41.45
26937;BME280;14495;48.116;11.676;2023-05-29T07:27:52;95631.72;;;26.80;42.10
26937;BME280;14495;48.116;11.676;2023-05-29T07:30:18;95628.22;;;27.21;41.79
26937;BME280;14495;48.116;11.676;2023-05-29T07:32:43;95630.47;;;26.54;42.28
26937;BME280;14495;48.116;11.676;2023-05-29T07:35:09;95638.97;;;25.35;44.37
26937;BME280;14495;48.116;11.676;2023-05-29T07:37:34;95636.41;;;26.50;42.27
26937;BME280;14495;48.116;11.676;2023-05-29T07:40:03;95641.22;;;26.11;43.25
26937;BME280;14495;48.116;11.676;2023-05-29T07:42:32;95638.19;;;26.64;41.83
26937;BME280;14495;48.116;11.676;2023-05-29T07:44:58;95640.47;;;26.95;42.59
26937;BME280;14495;48.116;11.676;2023-05-29T07:47:24;95648.09;;;25.77;44.17
26937;BME280;14495;48.116;11.676;2023-05-29T07:49:49;95645.31;;;26.29;43.10
26937;BME280;14495;48.116;11.676;2023-05-29T07:52:15;95641.38;;;26.03;42.99
26937;BME280;14495;48.116;11.676;2023-05-29T07:54:40;95646.66;;;26.18;42.66
26937;BME280;14495;48.116;11.676;2023-05-29T07:57:06;95644.84;;;25.82;43.36
26937;BME280;14495;48.116;11.676;2023-05-29T07:59:40;95644.31;;;25.05;44.30
26937;BME280;14495;48.116;11.676;2023-05-29T08:02:07;95639.22;;;23.59;47.29
26937;BME280;14495;48.116;11.676;2023-05-29T08:04:33;95642.03;;;22.86;48.35
26937;BME280;14495;48.116;11.676;2023-05-29T08:07:02;95637.19;;;22.82;48.72
26937;BME280;14495;48.116;11.676;2023-05-29T08:09:31;95639.03;;;22.81;50.62
26937;BME280;14495;48.116;11.676;2023-05-29T08:11:56;95637.63;;;22.21;52.23
26937;BME280;14495;48.116;11.676;2023-05-29T08:14:22;95632.97;;;21.98;51.86
26937;BME280;14495;48.116;11.676;2023-05-29T08:16:48;95633.94;;;21.89;52.19
26937;BME280;14495;48.116;11.676;2023-05-29T08:19:15;95634.28;;;21.70;52.04
26937;BME280;14495;48.116;11.676;2023-05-29T08:21:45;95633.72;;;21.41;53.33
26937;BME280;14495;48.116;11.676;2023-05-29T08:24:11;95641.72;;;21.58;53.15
26937;BME280;14495;48.116;11.676;2023-05-29T08:26:36;95638.47;;;21.21;53.88
26937;BME280;14495;48.116;11.676;2023-05-29T08:29:02;95638.09;;;21.08;54.57
26937;BME280;14495;48.116;11.676;2023-05-29T08:31:27;95639.00;;;21.33;54.35
26937;BME280;14495;48.116;11.676;2023-05-29T08:33:53;95639.81;;;21.34;53.47
26937;BME280;14495;48.116;11.676;2023-05-29T08:36:19;95643.84;;;21.38;54.72
26937;BME280;14495;48.116;11.676;2023-05-29T08:38:48;95645.13;;;21.26;54.45
26937;BME280;14495;48.116;11.676;2023-05-29T08:41:20;95637.16;;;21.34;54.53
26937;BME280;14495;48.116;11.676;2023-05-29T08:43:48;95639.03;;;21.41;55.07
26937;BME280;14495;48.116;11.676;2023-05-29T08:46:17;95637.34;;;21.32;56.50
26937;BME280;14495;48.116;11.676;2023-05-29T08:48:45;95635.28;;;21.60;55.43
26937;BME280;14495;48.116;11.676;2023-05-29T08:51:13;95638.28;;;21.98;55.19
26937;BME280;14495;48.116;11.676;2023-05-29T08:53:39;95638.94;;;21.92;53.85
26937;BME280;14495;48.116;11.676;2023-05-29T08:56:05;95639.28;;;21.89;52.78
26937;BME280;14495;48.116;11.676;2023-05-29T08:58:31;95642.59;;;21.91;54.82
26937;BME280;14495;48.116;11.676;2023-05-29T09:00:57;95639.28;;;21.89;53.63
26937;BME280;14495;48.116;11.676;2023-05-29T09:03:24;95646.59;;;22.04;54.89
26937;BME280;14495;48.116;11.676;2023-05-29T09:05:50;95635.31;;;22.26;53.61
26937;BME280;14495;48.116;11.676;2023-05-29T09:08:16;95644.25;;;22.17;54.41
26937;BME280;14495;48.116;11.676;2023-05-29T09:10:42;95642.63;;;22.16;53.99
26937;BME280;14495;48.116;11.676;2023-05-29T09:13:09;95638.28;;;21.90;53.53
26937;BME280;14495;48.116;11.676;2023-05-29T09:15:35;95639.63;;;22.03;53.63
26937;BME280;14495;48.116;11.676;2023-05-29T09:18:01;95636.63;;;21.81;53.22
26937;BME280;14495;48.116;11.676;2023-05-29T09:20:27;95637.97;;;21.93;53.92
26937;BME280;14495;48.116;11.676;2023-05-29T09:22:54;95637.56;;;21.47;53.70
26937;BME280;14495;48.116;11.676;2023-05-29T09:25:22;95639.13;;;21.83;53.71
26937;BME280;14495;48.116;11.676;2023-05-29T09:27:55;95634.16;;;22.45;52.60
26937;BME280;14495;48.116;11.676;2023-05-29T09:30:41;95630.94;;;22.66;51.55
26937;BME280;14495;48.116;11.676;2023-05-29T09:33:08;95630.75;;;22.59;51.63
26937;BME280;14495;48.116;11.676;2023-05-29T09:35:47;95631.94;;;22.57;51.64
26937;BME280;14495;48.116;11.676;2023-05-29T09:38:17;95623.63;;;22.60;51.49
26937;BME280;14495;48.116;11.676;2023-05-29T09:40:43;95637.31;;;22.32;52.40
26937;BME280;14495;48.116;11.676;2023-05-29T09:43:18;95628.66;;;22.38;51.99
26937;BME280;14495;48.116;11.676;2023-05-29T09:45:46;95626.41;;;22.67;50.00
26937;BME280;14495;48.116;11.676;2023-05-29T09:48:22;95634.69;;;22.80;50.07
26937;BME280;14495;48.116;11.676;2023-05-29T09:50:48;95620.88;;;22.85;48.22
26937;BME280;14495;48.116;11.676;2023-05-29T09:55:43;95643.59;;;21.82;48.11
26937;BME280;14495;48.116;11.676;2023-05-29T09:58:10;95637.31;;;22.49;46.13
26937;BME280;14495;48.116;11.676;2023-05-29T10:00:37;95635.97;;;22.53;44.44
26937;BME280;14495;48.116;11.676;2023-05-29T10:03:04;95643.81;;;22.38;45.49
26937;BME280;14495;48.116;11.676;2023-05-29T10:05:29;95642.63;;;22.41;45.77
26937;BME280;14495;48.116;11.676;2023-05-29T10:07:55;95652.16;;;22.91;45.59
26937;BME280;14495;48.116;11.676;2023-05-29T10:10:21;95632.91;;;22.72;45.71
26937;BME280;14495;48.116;11.676;2023-05-29T10:12:50;95635.78;;;23.02;44.48
26937;BME280;14495;48.116;11.676;2023-05-29T10:15:16;95633.00;;;22.95;44.25
26937;BME280;14495;48.116;11.676;2023-05-29T10:17:53;95628.44;;;22.73;45.16
26937;BME280;14495;48.116;11.676;2023-05-29T10:20:22;95625.41;;;23.24;45.96
26937;BME280;14495;48.116;11.676;2023-05-29T10:22:52;95621.97;;;22.98;43.64
26937;BME280;14495;48.116;11.676;2023-05-29T10:25:20;95625.44;;;22.68;44.80
26937;BME280;14495;48.116;11.676;2023-05-29T10:27:46;95620.50;;;22.96;44.79
26937;BME280;14495;48.116;11.676;2023-05-29T10:38:13;95627.81;;;23.10;45.16
26937;BME280;14495;48.116;11.676;2023-05-29T10:40:44;95623.72;;;22.91;44.62
26937;BME280;14495;48.116;11.676;2023-05-29T10:43:30;95616.94;;;23.51;43.93
26937;BME280;14495;48.116;11.676;2023-05-29T10:46:02;95625.81;;;23.44;44.12
26937;BME280;14495;48.116;11.676;2023-05-29T10:50:56;95619.38;;;23.61;43.32
26937;BME280;14495;48.116;11.676;2023-05-29T10:53:26;95616.75;;;23.84;43.12
26937;BME280;14495;48.116;11.676;2023-05-29T10:55:56;95625.41;;;23.86;42.72
26937;BME280;14495;48.116;11.676;2023-05-29T10:58:23;95625.91;;;23.59;42.23
26937;BME280;14495;48.116;11.676;2023-05-29T11:00:49;95620.91;;;23.55;43.40
26937;BME280;14495;48.116;11.676;2023-05-29T11:03:19;95616.38;;;23.33;42.91
26937;BME280;14495;48.116;11.676;2023-05-29T11:06:02;95620.88;;;23.32;42.83
26937;BME280;14495;48.116;11.676;2023-05-29T11:08:39;95615.06;;;23.29;42.71
26937;BME280;14495;48.116;11.676;2023-05-29T11:11:06;95609.25;;;23.25;42.78
26937;BME280;14495;48.116;11.676;2023-05-29T11:13:33;95615.56;;;23.55;41.97
26937;BME280;14495;48.116;11.676;2023-05-29T11:18:49;95620.63;;;23.73;43.53
26937;BME280;14495;48.116;11.676;2023-05-29T11:24:27;95618.91;;;24.27;39.67
26937;BME280;14495;48.116;11.676;2023-05-29T11:26:54;95622.38;;;23.89;39.88
26937;BME280;14495;48.116;11.676;2023-05-29T11:29:24;95616.19;;;23.89;40.70
26937;BME280;14495;48.116;11.676;2023-05-29T11:31:57;95614.91;;;24.08;40.43
26937;BME280;14495;48.116;11.676;2023-05-29T11:34:24;95613.56;;;24.04;40.95
26937;BME280;14495;48.116;11.676;2023-05-29T11:36:53;95616.97;;;24.36;40.57
26937;BME280;14495;48.116;11.676;2023-05-29T11:39:21;95627.22;;;24.32;41.11
26937;BME280;14495;48.116;11.676;2023-05-29T11:41:50;95621.19;;;23.92;39.33
26937;BME280;14495;48.116;11.676;2023-05-29T11:44:15;95616.97;;;23.98;39.91
26937;BME280;14495;48.116;11.676;2023-05-29T11:46:41;95619.78;;;24.57;40.43
26937;BME280;14495;48.116;11.676;2023-05-29T11:49:06;95618.31;;;24.17;40.43
26937;BME280;14495;48.116;11.676;2023-05-29T11:51:32;95617.31;;;24.56;40.19
26937;BME280;14495;48.116;11.676;2023-05-29T11:53:57;95615.22;;;24.43;40.23
26937;BME280;14495;48.116;11.676;2023-05-29T11:56:29;95614.38;;;24.65;39.14
26937;BME280;14495;48.116;11.676;2023-05-29T11:58:58;95618.09;;;24.26;39.04
26937;BME280;14495;48.116;11.676;2023-05-29T12:01:25;95622.88;;;24.46;38.33
26937;BME280;14495;48.116;11.676;2023-05-29T12:03:51;95614.72;;;23.86;38.44
26937;BME280;14495;48.116;11.676;2023-05-29T12:06:33;95611.25;;;24.24;39.10
26937;BME280;14495;48.116;11.676;2023-05-29T12:09:03;95610.59;;;24.22;38.42
26937;BME280;14495;48.116;11.676;2023-05-29T12:11:30;95608.28;;;24.57;38.84
26937;BME280;14495;48.116;11.676;2023-05-29T12:13:57;95604.16;;;24.84;37.12
26937;BME280;14495;48.116;11.676;2023-05-29T12:16:25;95607.47;;;24.86;38.31
26937;BME280;14495;48.116;11.676;2023-05-29T12:18:51;95613.00;;;24.69;38.77
26937;BME280;14495;48.116;11.676;2023-05-29T12:21:21;95611.00;;;24.48;39.23
26937;BME280;14495;48.116;11.676;2023-05-29T12:23:46;95611.25;;;24.77;39.19
26937;BME280;14495;48.116;11.676;2023-05-29T12:26:12;95600.34;;;25.23;37.96
26937;BME280;14495;48.116;11.676;2023-05-29T12:28:43;95607.00;;;24.82;38.67
26937;BME280;14495;48.116;11.676;2023-05-29T12:31:09;95602.63;;;24.51;39.83
26937;BME280;14495;48.116;11.676;2023-05-29T12:33:35;95616.13;;;24.58;39.57
26937;BME280;14495;48.116;11.676;2023-05-29T12:36:01;95606.81;;;23.93;39.74
26937;BME280;14495;48.116;11.676;2023-05-29T12:38:27;95605.09;;;23.77;40.22
26937;BME280;14495;48.116;11.676;2023-05-29T12:40:52;95602.63;;;24.37;38.44
26937;BME280;14495;48.116;11.676;2023-05-29T12:43:19;95608.28;;;24.57;36.09
26937;BME280;14495;48.116;11.676;2023-05-29T12:45:45;95609.13;;;24.87;35.78
26937;BME280;14495;48.116;11.676;2023-05-29T12:48:10;95619.28;;;24.77;34.87
26937;BME280;14495;48.116;11.676;2023-05-29T12:50:40;95610.25;;;24.25;34.82
26937;BME280;14495;48.116;11.676;2023-05-29T12:53:07;95607.84;;;24.83;35.72
26937;BME280;14495;48.116;11.676;2023-05-29T12:55:34;95611.97;;;25.30;34.60
26937;BME280;14495;48.116;11.676;2023-05-29T12:58:04;95612.63;;;25.02;37.24
26937;BME280;14495;48.116;11.676;2023-05-29T13:00:30;95606.53;;;25.08;37.52
26937;BME280;14495;48.116;11.676;2023-05-29T13:02:56;95602.81;;;25.09;37.65
26937;BME280;14495;48.116;11.676;2023-05-29T13:05:22;95605.88;;;25.21;37.60
26937;BME280;14495;48.116;11.676;2023-05-29T13:07:51;95604.97;;;24.84;37.31
26937;BME280;14495;48.116;11.676;2023-05-29T13:10:19;95600.09;;;25.03;37.20
26937;BME280;14495;48.116;11.676;2023-05-29T13:12:47;95591.59;;;24.99;37.59
26937;BME280;14495;48.116;11.676;2023-05-29T13:15:14;95603.13;;;24.85;36.28